sensor_id;sensor_type;location;lat;lon;timestamp;pressure;altitude;pressure_sealevel;temperature;humidity
77685;BME280;66844;46.092;18.268;2023-06-04T00:00:08;99503.59;;;15.74;49.93
77685;BME280;66844;46.092;18.268;2023-06-04T00:00:40;99502.34;;;15.78;49.78
77685;BME280;66844;46.092;18.268;2023-06-04T00:01:12;99498.81;;;15.78;49.80
77685;BME280;66844;46.092;18.268;2023-06-04T00:01:47;99499.53;;;15.80;49.61
77685;BME280;66844;46.092;18.268;2023-06-04T00:02:19;99504.66;;;15.83;49.80
77685;BME280;66844;46.092;18.268;2023-06-04T00:02:52;99504.56;;;15.84;49.49
77685;BME280;66844;46.092;18.268;2023-06-04T00:03:24;99505.16;;;15.88;49.21
77685;BME280;66844;46.092;18.268;2023-06-04T00:03:56;99500.41;;;15.91;48.49
77685;BME280;66844;46.092;18.268;2023-06-04T00:04:29;99503.81;;;15.93;48.62
77685;BME280;66844;46.092;18.268;2023-06-04T00:05:01;99503.59;;;15.96;48.68
77685;BME280;66844;46.092;18.268;2023-06-04T00:05:34;99504.56;;;15.95;48.66
77685;BME280;66844;46.092;18.268;2023-06-04T00:06:06;99501.72;;;15.97;48.43
77685;BME280;66844;46.092;18.268;2023-06-04T00:06:37;99508.47;;;16.02;47.69
77685;BME280;66844;46.092;18.268;2023-06-04T00:07:10;99497.72;;;16.02;47.50
77685;BME280;66844;46.092;18.268;2023-06-04T00:07:42;99509.94;;;16.07;47.25
77685;BME280;66844;46.092;18.268;2023-06-04T00:08:13;99496.38;;;16.08;47.18
77685;BME280;66844;46.092;18.268;2023-06-04T00:08:46;99507.97;;;16.09;47.54
77685;BME280;66844;46.092;18.268;2023-06-04T00:09:18;99496.25;;;16.10;47.73
77685;BME280;66844;46.092;18.268;2023-06-04T00:09:50;99499.19;;;16.07;47.32
77685;BME280;66844;46.092;18.268;2023-06-04T00:10:22;99490.78;;;16.11;47.38
77685;BME280;66844;46.092;18.268;2023-06-04T00:10:54;99495.91;;;16.14;46.74
77685;BME280;66844;46.092;18.268;2023-06-04T00:11:26;99488.91;;;16.12;47.11
77685;BME280;66844;46.092;18.268;2023-06-04T00:11:58;99495.03;;;16.14;47.43
77685;BME280;66844;46.092;18.268;2023-06-04T00:12:30;99484.81;;;16.08;47.15
77685;BME280;66844;46.092;18.268;2023-06-04T00:13:02;99492.34;;;16.14;47.29
77685;BME280;66844;46.092;18.268;2023-06-04T00:13:34;99489.56;;;16.15;46.63
77685;BME280;66844;46.092;18.268;2023-06-04T00:14:06;99491.84;;;16.20;46.48
77685;BME280;66844;46.092;18.268;2023-06-04T00:14:38;99493.66;;;16.19;46.67
77685;BME280;66844;46.092;18.268;2023-06-04T00:15:10;99495.38;;;16.20;46.71
77685;BME280;66844;46.092;18.268;2023-06-04T00:15:42;99490.78;;;16.22;46.65
77685;BME280;66844;46.092;18.268;2023-06-04T00:16:14;99490.88;;;16.21;46.70
77685;BME280;66844;46.092;18.268;2023-06-04T00:16:46;99499.03;;;16.19;47.39
77685;BME280;66844;46.092;18.268;2023-06-04T00:17:18;99491.50;;;16.13;48.37
77685;BME280;66844;46.092;18.268;2023-06-04T00:17:50;99510.38;;;16.12;47.96
77685;BME280;66844;46.092;18.268;2023-06-04T00:18:22;99504.06;;;16.13;48.13
77685;BME280;66844;46.092;18.268;2023-06-04T00:18:54;99485.53;;;16.10;48.47
77685;BME280;66844;46.092;18.268;2023-06-04T00:19:26;99502.22;;;16.02;49.24
77685;BME280;66844;46.092;18.268;2023-06-04T00:19:58;99498.59;;;16.03;48.32
77685;BME280;66844;46.092;18.268;2023-06-04T00:20:30;99495.91;;;16.03;47.56
77685;BME280;66844;46.092;18.268;2023-06-04T00:21:02;99498.44;;;16.05;48.06
77685;BME280;66844;46.092;18.268;2023-06-04T00:21:34;99494.94;;;16.04;47.06
77685;BME280;66844;46.092;18.268;2023-06-04T00:22:07;99495.91;;;16.03;47.53
77685;BME280;66844;46.092;18.268;2023-06-04T00:22:39;99499.06;;;16.08;47.21
77685;BME280;66844;46.092;18.268;2023-06-04T00:23:13;99484.66;;;16.09;46.42
77685;BME280;66844;46.092;18.268;2023-06-04T00:23:45;99491.84;;;16.09;46.79
77685;BME280;66844;46.092;18.268;2023-06-04T00:24:17;99488.31;;;16.08;46.59
77685;BME280;66844;46.092;18.268;2023-06-04T00:24:49;99486.38;;;16.10;46.78
77685;BME280;66844;46.092;18.268;2023-06-04T00:25:21;99493.69;;;16.08;46.56
77685;BME280;66844;46.092;18.268;2023-06-04T00:25:53;99486.63;;;16.07;46.47
77685;BME280;66844;46.092;18.268;2023-06-04T00:26:25;99485.63;;;16.08;46.78
77685;BME280;66844;46.092;18.268;2023-06-04T00:26:58;99483.09;;;16.07;47.15
77685;BME280;66844;46.092;18.268;2023-06-04T00:27:29;99486.75;;;16.06;46.49
77685;BME280;66844;46.092;18.268;2023-06-04T00:28:02;99484.91;;;16.06;46.30
77685;BME280;66844;46.092;18.268;2023-06-04T00:28:34;99482.22;;;16.06;46.60
77685;BME280;66844;46.092;18.268;2023-06-04T00:29:06;99493.81;;;16.07;46.27
77685;BME280;66844;46.092;18.268;2023-06-04T00:29:38;99487.72;;;16.05;46.24
77685;BME280;66844;46.092;18.268;2023-06-04T00:30:10;99479.44;;;16.08;46.21
77685;BME280;66844;46.092;18.268;2023-06-04T00:30:42;99482.13;;;16.08;46.24
77685;BME280;66844;46.092;18.268;2023-06-04T00:31:14;99483.09;;;16.07;46.14
77685;BME280;66844;46.092;18.268;2023-06-04T00:31:47;99484.06;;;16.06;46.46
77685;BME280;66844;46.092;18.268;2023-06-04T00:32:20;99483.09;;;16.07;45.96
77685;BME280;66844;46.092;18.268;2023-06-04T00:32:52;99482.34;;;16.05;46.24
77685;BME280;66844;46.092;18.268;2023-06-04T00:33:24;99484.06;;;16.06;46.21
77685;BME280;66844;46.092;18.268;2023-06-04T00:33:56;99476.97;;;16.05;46.42
77685;BME280;66844;46.092;18.268;2023-06-04T00:34:28;99487.84;;;16.03;46.37
77685;BME280;66844;46.092;18.268;2023-06-04T00:35:00;99486.75;;;16.06;46.28
77685;BME280;66844;46.092;18.268;2023-06-04T00:35:33;99478.94;;;16.02;46.12
77685;BME280;66844;46.092;18.268;2023-06-04T00:36:05;99486.13;;;16.02;46.40
77685;BME280;66844;46.092;18.268;2023-06-04T00:36:37;99484.56;;;15.99;46.24
77685;BME280;66844;46.092;18.268;2023-06-04T00:37:09;99486.13;;;16.02;45.80
77685;BME280;66844;46.092;18.268;2023-06-04T00:37:41;99481.88;;;15.99;45.78
77685;BME280;66844;46.092;18.268;2023-06-04T00:38:12;99482.72;;;16.00;45.99
77685;BME280;66844;46.092;18.268;2023-06-04T00:38:45;99494.19;;;16.02;45.77
77685;BME280;66844;46.092;18.268;2023-06-04T00:39:17;99481.13;;;15.97;45.66
77685;BME280;66844;46.092;18.268;2023-06-04T00:39:49;99476.25;;;16.02;46.11
77685;BME280;66844;46.092;18.268;2023-06-04T00:40:21;99485.41;;;16.00;46.17
77685;BME280;66844;46.092;18.268;2023-06-04T00:40:53;99496.16;;;16.00;46.00
77685;BME280;66844;46.092;18.268;2023-06-04T00:41:25;99479.19;;;15.99;46.32
77685;BME280;66844;46.092;18.268;2023-06-04T00:41:57;99489.06;;;15.99;46.09
77685;BME280;66844;46.092;18.268;2023-06-04T00:42:29;99479.19;;;15.99;45.96
77685;BME280;66844;46.092;18.268;2023-06-04T00:43:02;99482.72;;;16.00;46.09
77685;BME280;66844;46.092;18.268;2023-06-04T00:43:35;99476.63;;;15.98;46.04
77685;BME280;66844;46.092;18.268;2023-06-04T00:44:07;99491.25;;;15.94;45.87
77685;BME280;66844;46.092;18.268;2023-06-04T00:44:39;99490.91;;;15.98;45.53
77685;BME280;66844;46.092;18.268;2023-06-04T00:45:16;99492.88;;;15.96;45.77
77685;BME280;66844;46.092;18.268;2023-06-04T00:45:50;99488.47;;;15.95;45.87
77685;BME280;66844;46.092;18.268;2023-06-04T00:46:24;99481.53;;;15.93;45.74
77685;BME280;66844;46.092;18.268;2023-06-04T00:46:57;99484.31;;;15.91;46.15
77685;BME280;66844;46.092;18.268;2023-06-04T00:47:29;99477.47;;;15.87;45.85
77685;BME280;66844;46.092;18.268;2023-06-04T00:48:01;99489.69;;;15.91;45.84
77685;BME280;66844;46.092;18.268;2023-06-04T00:48:33;99477.13;;;15.92;44.99
77685;BME280;66844;46.092;18.268;2023-06-04T00:49:05;99478.19;;;15.89;45.27
77685;BME280;66844;46.092;18.268;2023-06-04T00:49:38;99476.50;;;15.88;45.37
77685;BME280;66844;46.092;18.268;2023-06-04T00:50:11;99486.13;;;15.91;45.73
77685;BME280;66844;46.092;18.268;2023-06-04T00:50:43;99487.84;;;15.92;45.72
77685;BME280;66844;46.092;18.268;2023-06-04T00:51:15;99484.19;;;15.93;44.94
77685;BME280;66844;46.092;18.268;2023-06-04T00:51:48;99486.88;;;15.93;45.31
77685;BME280;66844;46.092;18.268;2023-06-04T00:52:20;99476.00;;;15.94;44.99
77685;BME280;66844;46.092;18.268;2023-06-04T00:52:52;99472.72;;;15.91;45.29
77685;BME280;66844;46.092;18.268;2023-06-04T00:53:25;99485.03;;;15.93;44.92
77685;BME280;66844;46.092;18.268;2023-06-04T00:53:58;99483.34;;;15.92;45.17
77685;BME280;66844;46.092;18.268;2023-06-04T00:54:31;99472.13;;;15.87;45.20
77685;BME280;66844;46.092;18.268;2023-06-04T00:55:05;99490.53;;;15.92;45.39
77685;BME280;66844;46.092;18.268;2023-06-04T00:55:37;99487.09;;;15.90;45.32
77685;BME280;66844;46.092;18.268;2023-06-04T00:56:09;99492.63;;;15.88;45.50
77685;BME280;66844;46.092;18.268;2023-06-04T00:56:41;99494.44;;;15.88;45.67
77685;BME280;66844;46.092;18.268;2023-06-04T00:57:13;99497.13;;;15.88;45.11
77685;BME280;66844;46.092;18.268;2023-06-04T00:57:45;99486.50;;;15.86;45.22
77685;BME280;66844;46.092;18.268;2023-06-04T00:58:17;99490.03;;;15.87;45.15
77685;BME280;66844;46.092;18.268;2023-06-04T00:58:49;99484.06;;;15.83;45.65
77685;BME280;66844;46.092;18.268;2023-06-04T00:59:22;99483.94;;;15.85;45.45
77685;BME280;66844;46.092;18.268;2023-06-04T00:59:54;99491.25;;;15.83;45.58
77685;BME280;66844;46.092;18.268;2023-06-04T01:00:26;99488.81;;;15.80;45.66
77685;BME280;66844;46.092;18.268;2023-06-04T01:01:04;99481.63;;;15.80;45.63
77685;BME280;66844;46.092;18.268;2023-06-04T01:01:55;99477.22;;;15.79;45.61
77685;BME280;66844;46.092;18.268;2023-06-04T01:02:29;99476.75;;;15.74;45.86
77685;BME280;66844;46.092;18.268;2023-06-04T01:03:07;99473.22;;;15.74;45.71
77685;BME280;66844;46.092;18.268;2023-06-04T01:03:45;99482.84;;;15.76;45.67
77685;BME280;66844;46.092;18.268;2023-06-04T01:04:27;99481.13;;;15.75;45.39
77685;BME280;66844;46.092;18.268;2023-06-04T01:05:57;99483.94;;;15.74;45.66
77685;BME280;66844;46.092;18.268;2023-06-04T01:06:43;99475.41;;;15.69;45.65
77685;BME280;66844;46.092;18.268;2023-06-04T01:07:16;99476.25;;;15.69;45.29
77685;BME280;66844;46.092;18.268;2023-06-04T01:07:48;99481.47;;;15.71;45.22
77685;BME280;66844;46.092;18.268;2023-06-04T01:08:20;99479.66;;;15.71;45.14
77685;BME280;66844;46.092;18.268;2023-06-04T01:08:53;99476.25;;;15.69;45.16
77685;BME280;66844;46.092;18.268;2023-06-04T01:09:27;99481.38;;;15.72;45.19
77685;BME280;66844;46.092;18.268;2023-06-04T01:09:59;99480.50;;;15.72;45.39
77685;BME280;66844;46.092;18.268;2023-06-04T01:10:32;99479.56;;;15.73;44.56
77685;BME280;66844;46.092;18.268;2023-06-04T01:11:04;99484.06;;;15.72;44.62
77685;BME280;66844;46.092;18.268;2023-06-04T01:11:38;99473.31;;;15.72;44.86
77685;BME280;66844;46.092;18.268;2023-06-04T01:12:10;99479.56;;;15.73;44.79
77685;BME280;66844;46.092;18.268;2023-06-04T01:12:43;99479.56;;;15.73;45.04
77685;BME280;66844;46.092;18.268;2023-06-04T01:13:15;99481.47;;;15.71;44.89
77685;BME280;66844;46.092;18.268;2023-06-04T01:13:47;99476.38;;;15.68;44.69
77685;BME280;66844;46.092;18.268;2023-06-04T01:14:19;99486.84;;;15.71;44.93
77685;BME280;66844;46.092;18.268;2023-06-04T01:14:51;99475.50;;;15.67;44.60
77685;BME280;66844;46.092;18.268;2023-06-04T01:15:23;99484.06;;;15.72;44.07
77685;BME280;66844;46.092;18.268;2023-06-04T01:15:55;99476.75;;;15.74;44.04
77685;BME280;66844;46.092;18.268;2023-06-04T01:16:30;99472.34;;;15.73;44.33
77685;BME280;66844;46.092;18.268;2023-06-04T01:17:11;99477.84;;;15.72;44.15
77685;BME280;66844;46.092;18.268;2023-06-04T01:17:49;99477.72;;;15.73;44.21
77685;BME280;66844;46.092;18.268;2023-06-04T01:18:27;99484.16;;;15.71;44.17
77685;BME280;66844;46.092;18.268;2023-06-04T01:19:10;99480.41;;;15.73;43.48
77685;BME280;66844;46.092;18.268;2023-06-04T01:19:57;99475.91;;;15.74;43.68
77685;BME280;66844;46.092;18.268;2023-06-04T01:20:42;99473.31;;;15.72;44.01
77685;BME280;66844;46.092;18.268;2023-06-04T01:21:15;99471.50;;;15.73;43.92
77685;BME280;66844;46.092;18.268;2023-06-04T01:21:51;99473.31;;;15.72;43.42
77685;BME280;66844;46.092;18.268;2023-06-04T01:23:49;99480.16;;;15.76;43.46
77685;BME280;66844;46.092;18.268;2023-06-04T01:24:34;99483.81;;;15.75;43.58
77685;BME280;66844;46.092;18.268;2023-06-04T01:25:32;99483.09;;;15.73;44.20
77685;BME280;66844;46.092;18.268;2023-06-04T01:26:04;99478.09;;;15.69;43.94
77685;BME280;66844;46.092;18.268;2023-06-04T01:26:36;99480.88;;;15.67;44.14
77685;BME280;66844;46.092;18.268;2023-06-04T01:27:09;99479.03;;;15.68;44.20
77685;BME280;66844;46.092;18.268;2023-06-04T01:27:41;99477.47;;;15.65;44.21
77685;BME280;66844;46.092;18.268;2023-06-04T01:28:14;99484.66;;;15.65;44.18
77685;BME280;66844;46.092;18.268;2023-06-04T01:28:47;99485.63;;;15.64;43.99
77685;BME280;66844;46.092;18.268;2023-06-04T01:29:20;99477.56;;;15.64;44.04
77685;BME280;66844;46.092;18.268;2023-06-04T01:29:52;99477.56;;;15.64;43.92
77685;BME280;66844;46.092;18.268;2023-06-04T01:30:36;99466.25;;;15.60;43.84
77685;BME280;66844;46.092;18.268;2023-06-04T01:31:14;99473.44;;;15.60;43.98
77685;BME280;66844;46.092;18.268;2023-06-04T01:31:46;99478.69;;;15.61;44.02
77685;BME280;66844;46.092;18.268;2023-06-04T01:32:21;99472.72;;;15.58;44.55
77685;BME280;66844;46.092;18.268;2023-06-04T01:32:56;99482.72;;;15.56;44.97
77685;BME280;66844;46.092;18.268;2023-06-04T01:33:28;99482.72;;;15.56;44.77
77685;BME280;66844;46.092;18.268;2023-06-04T01:34:00;99471.38;;;15.52;45.06
77685;BME280;66844;46.092;18.268;2023-06-04T01:34:44;99481.41;;;15.48;45.12
77685;BME280;66844;46.092;18.268;2023-06-04T01:35:16;99476.44;;;15.44;45.09
77685;BME280;66844;46.092;18.268;2023-06-04T01:35:49;99480.69;;;15.46;44.81
77685;BME280;66844;46.092;18.268;2023-06-04T01:36:21;99483.38;;;15.46;45.13
77685;BME280;66844;46.092;18.268;2023-06-04T01:36:53;99478.38;;;15.42;45.58
77685;BME280;66844;46.092;18.268;2023-06-04T01:37:25;99479.47;;;15.39;45.95
77685;BME280;66844;46.092;18.268;2023-06-04T01:37:58;99483.25;;;15.37;46.27
77685;BME280;66844;46.092;18.268;2023-06-04T01:38:30;99480.16;;;15.30;46.66
77685;BME280;66844;46.092;18.268;2023-06-04T01:39:01;99487.25;;;15.31;45.79
77685;BME280;66844;46.092;18.268;2023-06-04T01:39:34;99489.06;;;15.31;46.11
77685;BME280;66844;46.092;18.268;2023-06-04T01:40:07;99487.72;;;15.25;46.89
77685;BME280;66844;46.092;18.268;2023-06-04T01:40:40;99490.66;;;15.22;46.66
77685;BME280;66844;46.092;18.268;2023-06-04T01:41:12;99484.19;;;15.25;45.62
77685;BME280;66844;46.092;18.268;2023-06-04T01:41:44;99486.75;;;15.26;45.35
77685;BME280;66844;46.092;18.268;2023-06-04T01:42:16;99482.38;;;15.25;45.28
77685;BME280;66844;46.092;18.268;2023-06-04T01:42:48;99486.53;;;15.29;45.14
77685;BME280;66844;46.092;18.268;2023-06-04T01:43:20;99492.72;;;15.30;45.32
77685;BME280;66844;46.092;18.268;2023-06-04T01:43:52;99493.19;;;15.24;45.93
77685;BME280;66844;46.092;18.268;2023-06-04T01:44:24;99487.72;;;15.25;45.62
77685;BME280;66844;46.092;18.268;2023-06-04T01:44:56;99488.44;;;15.27;44.63
77685;BME280;66844;46.092;18.268;2023-06-04T01:45:28;99491.03;;;15.29;44.69
77685;BME280;66844;46.092;18.268;2023-06-04T01:46:01;99494.56;;;15.29;45.13
77685;BME280;66844;46.092;18.268;2023-06-04T01:46:33;99491.75;;;15.31;44.56
77685;BME280;66844;46.092;18.268;2023-06-04T01:47:05;99500.75;;;15.30;44.60
77685;BME280;66844;46.092;18.268;2023-06-04T01:47:37;99493.56;;;15.30;44.27
77685;BME280;66844;46.092;18.268;2023-06-04T01:48:09;99493.47;;;15.32;44.29
77685;BME280;66844;46.092;18.268;2023-06-04T01:48:41;99497.97;;;15.31;45.09
77685;BME280;66844;46.092;18.268;2023-06-04T01:49:13;99497.47;;;15.26;45.47
77685;BME280;66844;46.092;18.268;2023-06-04T01:49:45;99500.13;;;15.26;45.46
77685;BME280;66844;46.092;18.268;2023-06-04T01:50:18;99494.06;;;15.24;44.97
77685;BME280;66844;46.092;18.268;2023-06-04T01:50:50;99497.97;;;15.31;44.01
77685;BME280;66844;46.092;18.268;2023-06-04T01:51:22;99502.38;;;15.32;43.73
77685;BME280;66844;46.092;18.268;2023-06-04T01:51:54;99496.66;;;15.37;43.48
77685;BME280;66844;46.092;18.268;2023-06-04T01:52:27;99492.88;;;15.39;43.21
77685;BME280;66844;46.092;18.268;2023-06-04T01:52:59;99496.28;;;15.41;42.99
77685;BME280;66844;46.092;18.268;2023-06-04T01:53:31;99498.25;;;15.39;43.05
77685;BME280;66844;46.092;18.268;2023-06-04T01:54:03;99497.28;;;15.40;43.50
77685;BME280;66844;46.092;18.268;2023-06-04T01:54:35;99492.75;;;15.41;43.35
77685;BME280;66844;46.092;18.268;2023-06-04T01:55:12;99495.41;;;15.41;43.50
77685;BME280;66844;46.092;18.268;2023-06-04T01:55:44;99491.91;;;15.40;43.27
77685;BME280;66844;46.092;18.268;2023-06-04T01:56:16;99495.41;;;15.41;43.27
77685;BME280;66844;46.092;18.268;2023-06-04T01:56:49;99497.13;;;15.42;43.04
77685;BME280;66844;46.092;18.268;2023-06-04T01:57:22;99493.50;;;15.43;43.29
77685;BME280;66844;46.092;18.268;2023-06-04T01:57:53;99493.50;;;15.43;43.13
77685;BME280;66844;46.092;18.268;2023-06-04T01:58:25;99494.47;;;15.42;43.03
77685;BME280;66844;46.092;18.268;2023-06-04T01:59:01;99493.50;;;15.43;43.11
77685;BME280;66844;46.092;18.268;2023-06-04T01:59:35;99501.44;;;15.44;42.91
77685;BME280;66844;46.092;18.268;2023-06-04T02:00:09;99489.94;;;15.42;42.93
77685;BME280;66844;46.092;18.268;2023-06-04T02:00:42;99496.91;;;15.45;42.73
77685;BME280;66844;46.092;18.268;2023-06-04T02:01:14;99489.84;;;15.44;42.82
77685;BME280;66844;46.092;18.268;2023-06-04T02:01:48;99500.97;;;15.50;42.55
77685;BME280;66844;46.092;18.268;2023-06-04T02:02:20;99500.00;;;15.51;42.49
77685;BME280;66844;46.092;18.268;2023-06-04T02:02:52;99491.44;;;15.46;42.69
77685;BME280;66844;46.092;18.268;2023-06-04T02:03:27;99501.94;;;15.49;42.72
77685;BME280;66844;46.092;18.268;2023-06-04T02:03:59;99497.50;;;15.48;43.20
77685;BME280;66844;46.092;18.268;2023-06-04T02:04:32;99498.50;;;15.47;43.06
77685;BME280;66844;46.092;18.268;2023-06-04T02:05:04;99490.47;;;15.47;42.70
77685;BME280;66844;46.092;18.268;2023-06-04T02:05:39;99503.66;;;15.50;42.13
77685;BME280;66844;46.092;18.268;2023-06-04T02:06:11;99500.13;;;15.50;42.35
77685;BME280;66844;46.092;18.268;2023-06-04T02:06:44;99504.72;;;15.48;42.92
77685;BME280;66844;46.092;18.268;2023-06-04T02:07:15;99502.16;;;15.46;42.63
77685;BME280;66844;46.092;18.268;2023-06-04T02:07:52;99504.84;;;15.46;42.68
77685;BME280;66844;46.092;18.268;2023-06-04T02:08:24;99506.66;;;15.46;42.62
77685;BME280;66844;46.092;18.268;2023-06-04T02:08:57;99504.84;;;15.46;42.84
77685;BME280;66844;46.092;18.268;2023-06-04T02:09:29;99508.47;;;15.45;42.71
77685;BME280;66844;46.092;18.268;2023-06-04T02:10:01;99507.75;;;15.43;43.02
77685;BME280;66844;46.092;18.268;2023-06-04T02:10:33;99511.16;;;15.45;43.14
77685;BME280;66844;46.092;18.268;2023-06-04T02:11:05;99510.31;;;15.45;42.76
77685;BME280;66844;46.092;18.268;2023-06-04T02:11:37;99512.00;;;15.46;42.87
77685;BME280;66844;46.092;18.268;2023-06-04T02:12:09;99506.91;;;15.43;42.92
77685;BME280;66844;46.092;18.268;2023-06-04T02:12:59;99505.94;;;15.44;42.71
77685;BME280;66844;46.092;18.268;2023-06-04T02:13:31;99503.47;;;15.41;42.85
77685;BME280;66844;46.092;18.268;2023-06-04T02:14:03;99514.09;;;15.42;42.84
77685;BME280;66844;46.092;18.268;2023-06-04T02:14:35;99507.75;;;15.43;42.70
77685;BME280;66844;46.092;18.268;2023-06-04T02:15:10;99504.31;;;15.41;42.49
77685;BME280;66844;46.092;18.268;2023-06-04T02:15:42;99505.31;;;15.40;42.90
77685;BME280;66844;46.092;18.268;2023-06-04T02:16:14;99507.13;;;15.40;42.96
77685;BME280;66844;46.092;18.268;2023-06-04T02:16:46;99501.63;;;15.41;42.58
77685;BME280;66844;46.092;18.268;2023-06-04T02:17:21;99501.16;;;15.36;42.88
77685;BME280;66844;46.092;18.268;2023-06-04T02:17:56;99503.59;;;15.39;42.82
77685;BME280;66844;46.092;18.268;2023-06-04T02:18:34;99503.72;;;15.38;43.07
77685;BME280;66844;46.092;18.268;2023-06-04T02:19:06;99494.09;;;15.35;42.71
77685;BME280;66844;46.092;18.268;2023-06-04T02:19:40;99497.47;;;15.37;42.95
77685;BME280;66844;46.092;18.268;2023-06-04T02:20:16;99494.19;;;15.34;43.39
77685;BME280;66844;46.092;18.268;2023-06-04T02:20:49;99502.84;;;15.37;42.85
77685;BME280;66844;46.092;18.268;2023-06-04T02:21:21;99502.03;;;15.37;43.48
77685;BME280;66844;46.092;18.268;2023-06-04T02:21:53;99511.13;;;15.34;43.06
77685;BME280;66844;46.092;18.268;2023-06-04T02:22:26;99499.78;;;15.31;42.98
77685;BME280;66844;46.092;18.268;2023-06-04T02:22:58;99504.91;;;15.34;43.07
77685;BME280;66844;46.092;18.268;2023-06-04T02:23:30;99501.75;;;15.29;43.26
77685;BME280;66844;46.092;18.268;2023-06-04T02:24:02;99506.97;;;15.30;43.11
77685;BME280;66844;46.092;18.268;2023-06-04T02:24:34;99500.66;;;15.31;42.70
77685;BME280;66844;46.092;18.268;2023-06-04T02:25:06;99492.72;;;15.30;42.79
77685;BME280;66844;46.092;18.268;2023-06-04T02:25:40;99507.84;;;15.31;42.97
77685;BME280;66844;46.092;18.268;2023-06-04T02:26:13;99500.66;;;15.31;43.10
77685;BME280;66844;46.092;18.268;2023-06-04T02:26:45;99510.50;;;15.31;42.97
77685;BME280;66844;46.092;18.268;2023-06-04T02:27:18;99503.44;;;15.30;43.12
77685;BME280;66844;46.092;18.268;2023-06-04T02:27:50;99509.66;;;15.30;43.09
77685;BME280;66844;46.092;18.268;2023-06-04T02:28:22;99495.78;;;15.25;43.45
77685;BME280;66844;46.092;18.268;2023-06-04T02:28:54;99505.41;;;15.28;43.27
77685;BME280;66844;46.092;18.268;2023-06-04T02:29:25;99507.22;;;15.27;43.29
77685;BME280;66844;46.092;18.268;2023-06-04T02:29:58;99505.50;;;15.26;43.50
77685;BME280;66844;46.092;18.268;2023-06-04T02:30:30;99499.41;;;15.24;43.01
77685;BME280;66844;46.092;18.268;2023-06-04T02:31:02;99510.03;;;15.26;43.06
77685;BME280;66844;46.092;18.268;2023-06-04T02:31:34;99502.94;;;15.25;43.25
77685;BME280;66844;46.092;18.268;2023-06-04T02:32:07;99496.00;;;15.22;42.94
77685;BME280;66844;46.092;18.268;2023-06-04T02:32:39;99502.72;;;15.28;42.67
77685;BME280;66844;46.092;18.268;2023-06-04T02:33:13;99508.94;;;15.28;42.78
77685;BME280;66844;46.092;18.268;2023-06-04T02:33:45;99504.53;;;15.27;42.59
77685;BME280;66844;46.092;18.268;2023-06-04T02:34:17;99505.50;;;15.26;43.00
77685;BME280;66844;46.092;18.268;2023-06-04T02:34:49;99496.72;;;15.24;42.97
77685;BME280;66844;46.092;18.268;2023-06-04T02:35:21;99503.69;;;15.27;42.94
77685;BME280;66844;46.092;18.268;2023-06-04T02:35:54;99502.72;;;15.28;42.90
77685;BME280;66844;46.092;18.268;2023-06-04T02:36:28;99508.19;;;15.26;42.75
77685;BME280;66844;46.092;18.268;2023-06-04T02:37:02;99505.50;;;15.26;42.99
77685;BME280;66844;46.092;18.268;2023-06-04T02:37:34;99502.19;;;15.23;43.10
77685;BME280;66844;46.092;18.268;2023-06-04T02:38:06;99498.03;;;15.19;43.25
77685;BME280;66844;46.092;18.268;2023-06-04T02:38:38;99505.75;;;15.23;42.79
77685;BME280;66844;46.092;18.268;2023-06-04T02:39:10;99506.59;;;15.24;43.03
77685;BME280;66844;46.092;18.268;2023-06-04T02:39:42;99509.16;;;15.25;43.01
77685;BME280;66844;46.092;18.268;2023-06-04T02:40:14;99512.81;;;15.24;42.83
77685;BME280;66844;46.092;18.268;2023-06-04T02:40:46;99504.06;;;15.22;42.96
77685;BME280;66844;46.092;18.268;2023-06-04T02:41:18;99508.41;;;15.23;43.02
77685;BME280;66844;46.092;18.268;2023-06-04T02:41:50;99507.69;;;15.21;42.97
77685;BME280;66844;46.092;18.268;2023-06-04T02:42:22;99506.72;;;15.22;42.59
77685;BME280;66844;46.092;18.268;2023-06-04T02:42:55;99505.75;;;15.23;42.77
77685;BME280;66844;46.092;18.268;2023-06-04T02:43:27;99503.06;;;15.23;42.85
77685;BME280;66844;46.092;18.268;2023-06-04T02:43:59;99503.91;;;15.24;42.81
77685;BME280;66844;46.092;18.268;2023-06-04T02:44:31;99507.69;;;15.21;43.09
77685;BME280;66844;46.092;18.268;2023-06-04T02:45:04;99500.63;;;15.20;43.02
77685;BME280;66844;46.092;18.268;2023-06-04T02:45:36;99496.22;;;15.19;42.98
77685;BME280;66844;46.092;18.268;2023-06-04T02:46:08;99502.44;;;15.20;42.73
77685;BME280;66844;46.092;18.268;2023-06-04T02:46:40;99505.25;;;15.18;43.08
77685;BME280;66844;46.092;18.268;2023-06-04T02:47:12;99496.59;;;15.15;43.03
77685;BME280;66844;46.092;18.268;2023-06-04T02:47:44;99501.72;;;15.18;43.13
77685;BME280;66844;46.092;18.268;2023-06-04T02:48:16;99500.97;;;15.16;43.10
77685;BME280;66844;46.092;18.268;2023-06-04T02:48:48;99503.41;;;15.19;42.89
77685;BME280;66844;46.092;18.268;2023-06-04T02:49:20;99496.59;;;15.15;43.06
77685;BME280;66844;46.092;18.268;2023-06-04T02:49:53;99502.56;;;15.18;42.88
77685;BME280;66844;46.092;18.268;2023-06-04T02:50:25;99493.91;;;15.15;43.14
77685;BME280;66844;46.092;18.268;2023-06-04T02:50:57;99500.84;;;15.17;42.97
77685;BME280;66844;46.092;18.268;2023-06-04T02:51:29;99505.13;;;15.20;43.01
77685;BME280;66844;46.092;18.268;2023-06-04T02:52:01;99495.34;;;15.19;43.06
77685;BME280;66844;46.092;18.268;2023-06-04T02:52:33;99496.22;;;15.19;42.99
77685;BME280;66844;46.092;18.268;2023-06-04T02:53:09;99494.63;;;15.17;43.00
77685;BME280;66844;46.092;18.268;2023-06-04T02:53:40;99500.84;;;15.17;43.05
77685;BME280;66844;46.092;18.268;2023-06-04T02:54:13;99492.81;;;15.17;43.08
77685;BME280;66844;46.092;18.268;2023-06-04T02:54:45;99497.22;;;15.18;42.96
77685;BME280;66844;46.092;18.268;2023-06-04T02:55:17;99493.69;;;15.18;42.89